Time;durP1;ratioP1;P1;durP2;ratioP2;P2;SDS_P1;SDS_P2;PMS_P1;PMS_P2;Temp;Humidity;BMP_temperature;BMP_pressure;BME280_temperature;BME280_humidity;BME280_pressure;Samples;Min_cycle;Max_cycle;Signal;HPM_P1;HPM_P2
2021/06/26 00:02:07;;;;;;;0.30;0.30;;;14.20;99.90;;;;;;5009938;28;20037;-84
2021/06/26 00:04:33;;;;;;;0.10;0.10;;;14.10;99.90;;;;;;5013671;28;20025;-85
2021/06/26 00:06:58;;;;;;;0.30;0.30;;;14.00;99.90;;;;;;5030777;28;20526;-85
2021/06/26 00:09:24;;;;;;;0.30;0.30;;;14.10;99.90;;;;;;5030498;28;20041;-85
2021/06/26 00:11:50;;;;;;;0.47;0.47;;;13.90;99.90;;;;;;5029796;28;20033;-85
2021/06/26 00:14:17;;;;;;;0.10;0.10;;;13.80;99.90;;;;;;5030948;28;20067;-85
2021/06/26 00:16:42;;;;;;;1.73;0.52;;;13.70;99.90;;;;;;5030755;28;20148;-85
2021/06/26 00:19:08;;;;;;;0.63;0.43;;;13.70;99.90;;;;;;5030846;28;20570;-84
2021/06/26 00:21:34;;;;;;;0.43;0.43;;;13.60;99.90;;;;;;5030622;28;20026;-85
2021/06/26 00:24:00;;;;;;;0.27;0.27;;;13.60;99.90;;;;;;5030885;28;20072;-85
2021/06/26 00:26:26;;;;;;;0.10;0.10;;;13.60;99.90;;;;;;5045587;28;20039;-85
2021/06/26 00:28:52;;;;;;;0.10;0.10;;;13.50;99.90;;;;;;5030503;28;20025;-85
2021/06/26 00:31:21;;;;;;;0.10;0.10;;;13.60;99.90;;;;;;5030022;28;20458;-84
2021/06/26 00:33:47;;;;;;;0.10;0.10;;;13.40;99.90;;;;;;5030572;28;20026;-84
2021/06/26 00:36:12;;;;;;;0.22;0.22;;;13.40;99.90;;;;;;5045552;28;20029;-84
2021/06/26 00:38:39;;;;;;;0.10;0.10;;;13.30;99.90;;;;;;5025930;28;20060;-84
2021/06/26 00:41:05;;;;;;;0.13;0.13;;;13.30;99.90;;;;;;5037489;28;20035;-84
2021/06/26 00:43:32;;;;;;;0.30;0.30;;;13.40;99.90;;;;;;5023994;28;20021;-84
2021/06/26 00:45:58;;;;;;;0.10;0.10;;;13.40;99.90;;;;;;5030573;28;20040;-84
2021/06/26 00:48:24;;;;;;;0.30;0.30;;;13.30;99.90;;;;;;5029906;28;20037;-84
2021/06/26 00:50:50;;;;;;;0.70;0.40;;;13.20;99.90;;;;;;5029849;28;20037;-84
2021/06/26 00:53:16;;;;;;;0.47;0.47;;;13.20;99.90;;;;;;5030605;28;20021;-84
2021/06/26 00:55:51;;;;;;;0.60;0.60;;;13.10;99.90;;;;;;5030617;28;20032;-84
2021/06/26 00:58:27;;;;;;;0.43;0.43;;;13.10;99.90;;;;;;5012246;28;20076;-84
2021/06/26 01:00:53;;;;;;;0.47;0.47;;;13.10;99.90;;;;;;5010691;28;20053;-84
2021/06/26 01:03:20;;;;;;;0.25;0.25;;;13.10;99.90;;;;;;5010406;28;20384;-84
2021/06/26 01:05:45;;;;;;;0.30;0.30;;;13.10;99.90;;;;;;5040013;28;20048;-84
2021/06/26 01:08:12;;;;;;;0.10;0.10;;;13.10;99.90;;;;;;5027996;28;20766;-84
2021/06/26 01:10:39;;;;;;;0.45;0.40;;;13.00;99.90;;;;;;5029375;28;20087;-84
2021/06/26 01:13:06;;;;;;;0.73;0.70;;;12.90;99.90;;;;;;5029241;28;20029;-84
2021/06/26 01:15:32;;;;;;;0.30;0.30;;;12.90;99.90;;;;;;5029242;28;20020;-84
2021/06/26 01:17:58;;;;;;;0.10;0.10;;;12.90;99.90;;;;;;5028489;28;20030;-84
2021/06/26 01:20:25;;;;;;;0.20;0.20;;;12.90;99.90;;;;;;5029490;28;20260;-84
2021/06/26 01:22:55;;;;;;;0.20;0.20;;;12.90;99.90;;;;;;5029505;28;20025;-84
2021/06/26 01:25:22;;;;;;;0.40;0.40;;;12.90;99.90;;;;;;5044670;28;20033;-84
2021/06/26 01:27:49;;;;;;;1.45;0.30;;;12.70;99.90;;;;;;5044195;28;20029;-84
2021/06/26 01:30:22;;;;;;;0.20;0.20;;;12.70;99.90;;;;;;5029270;28;20041;-83
2021/06/26 01:32:47;;;;;;;0.38;0.38;;;12.80;99.90;;;;;;5009642;28;20132;-84
2021/06/26 01:35:13;;;;;;;0.00;0.00;;;12.60;99.90;;;;;;5009573;28;20033;-84
2021/06/26 01:37:40;;;;;;;0.20;0.20;;;12.70;99.90;;;;;;5024652;28;20789;-84
2021/06/26 01:40:08;;;;;;;0.35;0.35;;;12.70;99.90;;;;;;5009654;28;20510;-84
2021/06/26 01:42:34;;;;;;;0.10;0.10;;;12.50;99.90;;;;;;5009971;28;20030;-84
2021/06/26 01:45:00;;;;;;;0.10;0.10;;;12.70;99.90;;;;;;5009662;28;20044;-84
2021/06/26 01:47:25;;;;;;;0.20;0.20;;;12.70;99.90;;;;;;5009990;28;20029;-84
2021/06/26 01:49:51;;;;;;;0.52;0.52;;;12.50;99.90;;;;;;5028487;28;20757;-84
2021/06/26 01:52:17;;;;;;;0.20;0.20;;;12.50;99.90;;;;;;5014012;28;20038;-84
2021/06/26 01:54:43;;;;;;;0.32;0.32;;;12.50;99.90;;;;;;5009466;28;20033;-84
2021/06/26 01:57:09;;;;;;;0.10;0.10;;;12.40;99.90;;;;;;5007935;28;20543;-84
2021/06/26 01:59:38;;;;;;;0.20;0.20;;;12.30;99.90;;;;;;5009587;28;20105;-84
2021/06/26 02:02:06;;;;;;;0.10;0.10;;;12.20;99.90;;;;;;5009382;28;20037;-84
2021/06/26 02:04:32;;;;;;;0.08;0.08;;;12.30;99.90;;;;;;5026100;28;20025;-84
2021/06/26 02:06:58;;;;;;;1.00;0.87;;;12.20;99.90;;;;;;5028294;28;20143;-84
2021/06/26 02:09:24;;;;;;;0.28;0.28;;;12.10;99.90;;;;;;5028895;28;20096;-84
2021/06/26 02:11:51;;;;;;;0.50;0.50;;;12.10;99.90;;;;;;5028943;28;20399;-84
2021/06/26 02:14:16;;;;;;;0.10;0.10;;;12.00;99.90;;;;;;5029262;28;20025;-84
2021/06/26 02:16:42;;;;;;;0.52;0.38;;;12.00;99.90;;;;;;5028719;28;20084;-84
2021/06/26 02:19:08;;;;;;;0.10;0.10;;;11.80;99.90;;;;;;5029601;28;20024;-84
2021/06/26 02:21:34;;;;;;;0.10;0.10;;;11.80;99.90;;;;;;5031325;28;20091;-84
2021/06/26 02:24:00;;;;;;;0.20;0.20;;;11.80;99.90;;;;;;5030104;28;20044;-84
2021/06/26 02:26:25;;;;;;;0.20;0.20;;;11.80;99.90;;;;;;5032686;28;20033;-84
2021/06/26 02:28:51;;;;;;;0.22;0.22;;;11.90;99.90;;;;;;5031183;28;20518;-84
2021/06/26 02:31:17;;;;;;;0.20;0.20;;;11.90;99.90;;;;;;5032206;28;20466;-84
2021/06/26 02:33:43;;;;;;;0.10;0.10;;;11.80;99.90;;;;;;5032902;28;20033;-84
2021/06/26 02:36:09;;;;;;;0.47;0.47;;;11.80;99.90;;;;;;5031376;28;20430;-84
2021/06/26 02:38:35;;;;;;;0.13;0.13;;;11.80;99.90;;;;;;5032561;28;20048;-84
2021/06/26 02:41:01;;;;;;;0.10;0.10;;;11.70;99.90;;;;;;5047259;28;20017;-84
2021/06/26 02:43:27;;;;;;;0.13;0.13;;;11.80;99.90;;;;;;5032336;28;20063;-84
2021/06/26 02:45:52;;;;;;;0.10;0.10;;;11.80;99.90;;;;;;5032338;28;20029;-84
2021/06/26 02:48:18;;;;;;;1.10;0.43;;;11.80;99.90;;;;;;5032180;28;20030;-84
2021/06/26 02:50:44;;;;;;;0.20;0.20;;;11.90;99.90;;;;;;5031241;28;20026;-84
2021/06/26 02:53:10;;;;;;;0.47;0.40;;;11.90;99.90;;;;;;5019520;28;20792;-84
2021/06/26 02:55:36;;;;;;;0.52;0.52;;;11.80;99.90;;;;;;5012244;28;20061;-84
2021/06/26 02:58:02;;;;;;;1.57;0.70;;;11.90;99.90;;;;;;5012290;28;20038;-84
2021/06/26 03:00:28;;;;;;;0.10;0.10;;;11.70;99.90;;;;;;5010776;28;20029;-84
2021/06/26 03:02:54;;;;;;;0.10;0.10;;;11.60;99.90;;;;;;5012053;28;20577;-84
2021/06/26 03:05:20;;;;;;;0.73;0.73;;;11.60;99.90;;;;;;5027398;28;20025;-83
2021/06/26 03:07:52;;;;;;;0.40;0.40;;;11.70;99.90;;;;;;5031575;28;20056;-84
2021/06/26 03:10:19;;;;;;;0.20;0.20;;;11.50;99.90;;;;;;5030286;28;20036;-85
2021/06/26 03:12:46;;;;;;;0.10;0.10;;;11.60;99.90;;;;;;5031734;28;20111;-84
2021/06/26 03:15:12;;;;;;;1.65;1.17;;;11.60;99.90;;;;;;5031707;28;20189;-84
2021/06/26 03:17:39;;;;;;;2.42;0.55;;;11.50;99.90;;;;;;5031046;28;20043;-84
2021/06/26 03:20:06;;;;;;;0.17;0.17;;;11.50;99.90;;;;;;5042615;28;20790;-84
2021/06/26 03:22:32;;;;;;;0.70;0.70;;;11.50;99.90;;;;;;5051619;28;20033;-84
2021/06/26 03:24:58;;;;;;;0.35;0.35;;;11.40;99.90;;;;;;5051838;28;20031;-84
2021/06/26 03:27:24;;;;;;;0.65;0.65;;;11.30;99.90;;;;;;5051521;28;20406;-84
2021/06/26 03:29:49;;;;;;;0.40;0.40;;;11.40;99.90;;;;;;5050079;28;20028;-84
2021/06/26 03:32:15;;;;;;;0.20;0.20;;;11.30;99.90;;;;;;5048919;28;20112;-84
2021/06/26 03:34:41;;;;;;;0.13;0.13;;;11.40;99.90;;;;;;5034032;28;20017;-84
2021/06/26 03:37:07;;;;;;;0.00;0.00;;;11.40;99.90;;;;;;5031432;28;20017;-84
2021/06/26 03:39:33;;;;;;;0.35;0.35;;;11.30;99.90;;;;;;5029883;28;20604;-84
2021/06/26 03:41:59;;;;;;;0.20;0.20;;;11.20;99.90;;;;;;5029234;28;20029;-84
2021/06/26 03:44:24;;;;;;;0.00;0.00;;;11.20;99.90;;;;;;5011059;28;20590;-84
2021/06/26 03:46:50;;;;;;;0.55;0.55;;;11.20;99.90;;;;;;5026142;28;20038;-84
2021/06/26 03:49:16;;;;;;;0.20;0.20;;;11.20;99.90;;;;;;5012695;28;20030;-84
2021/06/26 03:51:42;;;;;;;0.05;0.05;;;11.10;99.90;;;;;;5030634;28;20642;-84
2021/06/26 03:54:08;;;;;;;0.20;0.20;;;11.10;99.90;;;;;;5030488;28;20028;-84
2021/06/26 03:56:34;;;;;;;0.30;0.30;;;11.10;99.90;;;;;;5030322;28;20075;-84
2021/06/26 03:59:00;;;;;;;8.95;0.98;;;11.00;99.90;;;;;;5030491;28;20109;-84
2021/06/26 04:01:26;;;;;;;0.10;0.10;;;11.00;99.90;;;;;;5030212;28;20029;-84
2021/06/26 04:03:51;;;;;;;0.00;0.00;;;11.00;99.90;;;;;;5030442;28;20037;-84
2021/06/26 04:06:17;;;;;;;0.50;0.43;;;11.00;99.90;;;;;;5012581;28;20050;-84
2021/06/26 04:08:43;;;;;;;0.90;0.90;;;11.00;99.90;;;;;;5010465;28;20491;-84
2021/06/26 04:11:09;;;;;;;0.55;0.55;;;11.00;99.90;;;;;;5010458;28;20042;-84
2021/06/26 04:13:35;;;;;;;0.25;0.25;;;11.10;99.90;;;;;;5010507;28;20029;-84
2021/06/26 04:16:01;;;;;;;0.15;0.15;;;11.10;99.90;;;;;;5010593;28;20026;-85
2021/06/26 04:18:27;;;;;;;0.20;0.20;;;11.10;99.90;;;;;;5010747;28;20611;-84
2021/06/26 04:20:53;;;;;;;0.30;0.30;;;11.10;99.90;;;;;;5025775;28;20044;-84
2021/06/26 04:23:19;;;;;;;0.22;0.20;;;11.20;99.90;;;;;;5027290;28;20990;-84
2021/06/26 04:25:46;;;;;;;2.25;0.90;;;11.50;99.90;;;;;;5010527;28;20064;-84
2021/06/26 04:28:12;;;;;;;0.30;0.30;;;11.90;99.90;;;;;;5010612;28;20660;-84
2021/06/26 04:30:38;;;;;;;2.10;0.30;;;11.80;99.90;;;;;;5010014;28;20033;-84
2021/06/26 04:33:04;;;;;;;1.42;0.88;;;12.20;99.90;;;;;;5012311;28;20025;-84
2021/06/26 04:35:31;;;;;;;0.10;0.10;;;12.70;99.90;;;;;;5010278;28;20022;-84
2021/06/26 04:37:57;;;;;;;0.30;0.30;;;13.10;99.90;;;;;;5010443;28;20033;-86
2021/06/26 04:40:24;;;;;;;0.10;0.10;;;13.50;99.90;;;;;;5010605;28;20439;-85
2021/06/26 04:42:52;;;;;;;0.10;0.10;;;13.90;99.90;;;;;;5010127;28;20037;-85
2021/06/26 04:45:18;;;;;;;0.10;0.10;;;14.00;99.90;;;;;;5025433;28;20026;-86
2021/06/26 04:47:44;;;;;;;0.10;0.10;;;14.10;99.90;;;;;;5010069;28;20385;-85
2021/06/26 04:50:11;;;;;;;0.73;0.63;;;14.40;99.90;;;;;;5016688;28;20025;-84
2021/06/26 04:52:38;;;;;;;;;;;14.20;99.90;;;;;;5011660;28;20283;-86
2021/06/26 04:55:04;;;;;;;0.30;0.30;;;14.70;99.90;;;;;;5030000;28;20716;-86
2021/06/26 04:57:30;;;;;;;0.65;0.47;;;14.70;99.90;;;;;;5030076;28;20100;-85
2021/06/26 04:59:56;;;;;;;0.50;0.50;;;14.90;99.90;;;;;;5029671;28;20112;-85
2021/06/26 05:02:22;;;;;;;0.10;0.10;;;15.10;99.90;;;;;;5030128;28;20021;-85
2021/06/26 05:04:47;;;;;;;0.10;0.10;;;15.30;99.90;;;;;;5029854;28;20517;-86
2021/06/26 05:07:13;;;;;;;0.27;0.27;;;16.00;99.90;;;;;;5029913;28;20049;-86
2021/06/26 05:09:39;;;;;;;0.10;0.10;;;15.60;99.90;;;;;;5023214;28;20037;-86
2021/06/26 05:12:06;;;;;;;0.20;0.20;;;14.40;99.90;;;;;;5030033;28;20044;-86
2021/06/26 05:14:31;;;;;;;0.75;0.20;;;15.20;99.90;;;;;;5028999;28;20029;-86
2021/06/26 05:16:57;;;;;;;0.97;0.20;;;16.20;99.90;;;;;;5029999;28;20047;-86
2021/06/26 05:19:23;;;;;;;0.10;0.10;;;16.40;99.90;;;;;;5028699;28;20025;-86
2021/06/26 05:21:49;;;;;;;0.30;0.20;;;15.80;99.90;;;;;;5030640;28;20116;-86
2021/06/26 05:24:15;;;;;;;0.10;0.10;;;15.10;99.90;;;;;;5029993;28;20041;-86
2021/06/26 05:26:41;;;;;;;0.40;0.40;;;15.00;99.90;;;;;;5030189;28;20026;-86
2021/06/26 05:29:06;;;;;;;0.00;0.00;;;14.80;99.90;;;;;;5029497;28;20029;-85
2021/06/26 05:31:32;;;;;;;0.00;0.00;;;14.30;99.90;;;;;;5044805;28;20040;-85
2021/06/26 05:33:58;;;;;;;1.00;0.80;;;14.30;99.90;;;;;;5044742;28;20033;-86
2021/06/26 05:36:24;;;;;;;0.30;0.23;;;14.40;99.90;;;;;;5009734;28;20026;-85
2021/06/26 05:38:50;;;;;;;0.40;0.27;;;14.50;99.90;;;;;;5010035;28;20875;-85
2021/06/26 05:41:15;;;;;;;0.20;0.20;;;14.30;99.90;;;;;;5009323;28;20128;-86
2021/06/26 05:43:42;;;;;;;0.10;0.10;;;14.10;99.90;;;;;;5009703;28;20037;-86
2021/06/26 05:46:08;;;;;;;0.25;0.25;;;14.10;99.90;;;;;;5023439;28;20045;-86
2021/06/26 05:48:34;;;;;;;13.35;0.38;;;13.90;99.90;;;;;;5013965;28;20025;-86
2021/06/26 05:51:00;;;;;;;0.37;0.37;;;13.70;99.90;;;;;;5010622;28;20044;-86
2021/06/26 05:53:26;;;;;;;0.98;0.77;;;13.90;99.90;;;;;;5038901;28;20373;-86
2021/06/26 05:55:59;;;;;;;0.10;0.10;;;14.80;99.90;;;;;;5047341;28;20030;-87
2021/06/26 05:58:25;;;;;;;0.30;0.30;;;15.10;99.90;;;;;;5034488;28;20022;-86
2021/06/26 06:00:51;;;;;;;0.10;0.10;;;15.70;99.90;;;;;;5034709;28;20513;-86
2021/06/26 06:03:17;;;;;;;0.20;0.20;;;15.60;99.90;;;;;;5034673;28;20030;-86
2021/06/26 06:05:43;;;;;;;0.45;0.40;;;14.90;99.90;;;;;;5033331;28;20072;-86
2021/06/26 06:08:09;;;;;;;0.40;0.07;;;15.80;99.90;;;;;;5033215;28;20060;-87
2021/06/26 06:10:35;;;;;;;0.30;0.20;;;17.10;99.90;;;;;;5034042;28;20056;-87
2021/06/26 06:13:00;;;;;;;0.20;0.20;;;17.50;99.90;;;;;;5045576;28;20399;-87
2021/06/26 06:15:26;;;;;;;0.80;0.70;;;18.00;99.90;;;;;;5015209;28;20033;-87
2021/06/26 06:17:52;;;;;;;0.40;0.40;;;18.70;99.90;;;;;;5030164;28;20113;-84
2021/06/26 06:20:18;;;;;;;0.13;0.13;;;18.30;99.90;;;;;;5031056;28;20033;-86
2021/06/26 06:22:43;;;;;;;0.20;0.20;;;18.00;99.90;;;;;;5032215;28;20108;-86
2021/06/26 06:25:11;;;;;;;0.00;0.00;;;18.40;99.90;;;;;;5033395;28;20029;-86
2021/06/26 06:27:41;;;;;;;0.00;0.00;;;18.80;99.90;;;;;;5032951;28;20033;-86
2021/06/26 06:30:08;;;;;;;0.05;0.05;;;17.60;99.90;;;;;;5024255;28;20515;-85
2021/06/26 06:32:34;;;;;;;0.03;0.03;;;16.80;99.90;;;;;;5012818;28;20026;-85
2021/06/26 06:35:00;;;;;;;0.00;0.00;;;16.70;99.90;;;;;;5022341;28;20036;-84
2021/06/26 06:37:27;;;;;;;0.20;0.20;;;17.70;99.90;;;;;;5014552;28;20105;-85
2021/06/26 06:39:52;;;;;;;0.10;0.10;;;19.60;99.90;;;;;;5015419;28;20533;-86
2021/06/26 06:42:18;;;;;;;0.30;0.30;;;19.70;99.90;;;;;;5019920;28;20021;-85
2021/06/26 06:44:44;;;;;;;0.10;0.10;;;19.70;99.90;;;;;;5034127;28;20514;-84
2021/06/26 06:47:10;;;;;;;0.43;0.13;;;20.40;99.90;;;;;;5019327;28;20034;-83
2021/06/26 06:49:35;;;;;;;0.20;0.10;;;18.90;99.90;;;;;;5012443;28;20388;-83
2021/06/26 06:52:01;;;;;;;0.93;0.40;;;19.70;99.90;;;;;;5028341;28;20040;-83
2021/06/26 06:54:27;;;;;;;2.42;0.55;;;22.20;99.90;;;;;;5046977;28;20049;-84
2021/06/26 06:56:53;;;;;;;0.00;0.00;;;21.80;99.90;;;;;;5014080;28;20062;-84
2021/06/26 06:59:19;;;;;;;0.10;0.08;;;22.60;99.90;;;;;;5041323;28;20061;-84
2021/06/26 07:01:45;;;;;;;0.20;0.20;;;22.10;99.90;;;;;;5027029;28;20065;-84
2021/06/26 07:04:10;;;;;;;0.00;0.00;;;21.30;99.90;;;;;;5021641;28;20495;-84
2021/06/26 07:06:36;;;;;;;0.05;0.00;;;22.60;99.90;;;;;;5021689;28;20046;-85
2021/06/26 07:09:03;;;;;;;0.22;0.22;;;22.90;99.90;;;;;;5022420;28;20072;-85
2021/06/26 07:11:28;;;;;;;;;;;23.80;99.20;;;;;;5030420;28;20519;-85
2021/06/26 07:13:54;;;;;;;0.10;0.10;;;23.50;98.40;;;;;;5030678;28;19909;-85
2021/06/26 07:16:20;;;;;;;0.00;0.00;;;24.10;98.00;;;;;;5027654;28;20018;-85
2021/06/26 07:18:46;;;;;;;0.10;0.10;;;24.00;96.30;;;;;;5012762;28;20025;-85
2021/06/26 07:21:11;;;;;;;0.47;0.47;;;24.20;96.00;;;;;;5019078;28;20065;-85
2021/06/26 07:23:37;;;;;;;0.20;0.08;;;25.40;94.70;;;;;;5030145;28;20676;-85
2021/06/26 07:26:03;;;;;;;0.00;0.00;;;24.90;94.50;;;;;;5030014;28;20029;-85
2021/06/26 07:28:29;;;;;;;0.22;0.22;;;25.60;94.00;;;;;;5031706;28;20122;-85
2021/06/26 07:30:55;;;;;;;0.00;0.00;;;23.90;93.00;;;;;;5030989;28;20036;-85
2021/06/26 07:33:20;;;;;;;0.00;0.00;;;24.80;94.10;;;;;;5031589;28;20037;-86
2021/06/26 07:35:46;;;;;;;0.10;0.08;;;25.70;91.80;;;;;;5013861;28;20048;-85
2021/06/26 07:38:12;;;;;;;0.28;0.20;;;25.80;89.10;;;;;;5013217;28;20033;-86
2021/06/26 07:40:38;;;;;;;0.13;0.13;;;26.30;90.60;;;;;;5031972;28;20398;-85
2021/06/26 07:43:04;;;;;;;0.05;0.05;;;27.50;86.70;;;;;;5018388;28;20071;-86
2021/06/26 07:45:29;;;;;;;0.00;0.00;;;25.50;83.20;;;;;;5023794;28;20549;-87
2021/06/26 07:47:55;;;;;;;;;;;26.60;80.90;;;;;;5014745;28;20044;-87
2021/06/26 07:50:21;;;;;;;0.10;0.10;;;27.60;84.70;;;;;;5031057;28;19959;-87
2021/06/26 07:52:46;;;;;;;;;;;26.90;78.00;;;;;;5031301;28;20033;-85
2021/06/26 07:55:12;;;;;;;0.55;0.10;;;27.80;80.80;;;;;;5013473;28;19909;-85
2021/06/26 07:57:38;;;;;;;;;;;28.20;74.50;;;;;;5031489;28;20025;-86
2021/06/26 08:00:06;;;;;;;0.47;0.28;;;29.10;76.70;;;;;;5030936;28;19916;-86
2021/06/26 08:02:32;;;;;;;0.40;0.40;;;28.90;75.70;;;;;;5011293;28;20022;-86
2021/06/26 08:04:57;;;;;;;;;;;28.80;73.60;;;;;;5020436;28;20068;-86
2021/06/26 08:07:23;;;;;;;0.10;0.10;;;28.70;67.90;;;;;;5028988;28;19917;-86
2021/06/26 08:09:49;;;;;;;;;;;29.70;71.80;;;;;;5025833;28;20037;-86
2021/06/26 08:12:16;;;;;;;0.20;0.20;;;29.60;71.90;;;;;;5030587;28;20294;-86
2021/06/26 08:14:43;;;;;;;0.00;0.00;;;30.80;65.30;;;;;;5030435;28;20395;-87
2021/06/26 08:17:11;;;;;;;0.00;0.00;;;30.50;66.80;;;;;;5030976;28;20045;-87
2021/06/26 08:19:37;;;;;;;1.67;0.40;;;30.90;63.40;;;;;;5021285;28;20355;-87
2021/06/26 08:22:04;;;;;;;;;;;30.10;65.80;;;;;;5031969;28;20033;-86
2021/06/26 08:24:30;;;;;;;0.00;0.00;;;30.10;65.60;;;;;;5031016;28;19996;-86
2021/06/26 08:26:56;;;;;;;0.08;0.08;;;31.20;59.20;;;;;;5025272;28;20026;-86
2021/06/26 08:29:22;;;;;;;;;;;31.50;59.50;;;;;;5027902;28;20029;-86
2021/06/26 08:31:47;;;;;;;0.15;0.15;;;33.10;53.30;;;;;;5030536;28;19953;-85
2021/06/26 08:34:13;;;;;;;0.00;0.00;;;32.40;55.50;;;;;;5030164;28;20612;-85
2021/06/26 08:36:39;;;;;;;0.05;0.05;;;31.90;55.40;;;;;;5030185;28;20448;-86
2021/06/26 08:39:04;;;;;;;;;;;32.80;53.80;;;;;;5030506;28;20108;-85
2021/06/26 08:41:38;;;;;;;0.38;0.30;;;33.40;41.90;;;;;;5024425;28;19910;-85
2021/06/26 08:44:06;;;;;;;0.00;0.00;;;36.70;38.30;;;;;;5029808;28;20029;-86
2021/06/26 08:46:37;;;;;;;0.47;0.38;;;33.90;46.40;;;;;;5030001;28;20037;-86
2021/06/26 08:49:03;;;;;;;0.00;0.00;;;33.80;46.60;;;;;;5043810;28;20030;-86
2021/06/26 08:51:29;;;;;;;0.00;0.00;;;33.40;39.50;;;;;;5023973;28;20032;-85
2021/06/26 08:53:55;;;;;;;0.00;0.00;;;35.20;35.50;;;;;;5014773;28;20034;-85
2021/06/26 08:56:20;;;;;;;0.20;0.10;;;35.00;31.60;;;;;;5009992;28;20401;-85
2021/06/26 08:58:46;;;;;;;0.15;0.10;;;37.70;28.10;;;;;;5029492;28;20107;-86
2021/06/26 09:01:12;;;;;;;0.00;0.00;;;36.60;34.30;;;;;;5044900;28;20017;-85
2021/06/26 09:03:38;;;;;;;0.00;0.00;;;33.90;32.20;;;;;;5029622;28;20095;-86
2021/06/26 09:06:07;;;;;;;0.40;0.10;;;34.10;36.00;;;;;;5029572;28;20044;-85
2021/06/26 09:08:32;;;;;;;0.38;0.38;;;33.50;48.00;;;;;;5029634;28;20543;-85
2021/06/26 09:10:59;;;;;;;0.00;0.00;;;35.90;27.30;;;;;;5028145;28;20030;-85
2021/06/26 09:13:33;;;;;;;0.10;0.10;;;33.90;31.30;;;;;;5029422;28;20494;-85
2021/06/26 09:16:12;;;;;;;0.20;0.20;;;34.10;26.80;;;;;;5029559;28;20119;-86
2021/06/26 09:18:42;;;;;;;0.00;0.00;;;33.90;27.90;;;;;;5029562;28;20478;-85
2021/06/26 09:21:30;;;;;;;0.10;0.00;;;34.80;23.40;;;;;;5029326;28;20079;-85
2021/06/26 09:24:08;;;;;;;0.28;0.28;;;38.00;21.70;;;;;;5018342;28;20164;-86
2021/06/26 09:26:40;;;;;;;0.00;0.00;;;36.10;19.50;;;;;;5019723;28;20021;-86
2021/06/26 09:29:17;;;;;;;0.05;0.05;;;34.70;25.60;;;;;;5008930;28;20064;-85
2021/06/26 09:31:56;;;;;;;0.80;0.80;;;35.00;26.90;;;;;;5024688;28;20682;-86
2021/06/26 09:34:35;;;;;;;0.00;0.00;;;33.30;29.40;;;;;;5009580;28;20025;-85
2021/06/26 09:37:06;;;;;;;0.00;0.00;;;35.30;22.90;;;;;;5009506;28;20462;-86
2021/06/26 09:39:34;;;;;;;0.05;0.05;;;37.70;18.30;;;;;;5009217;28;20025;-86
2021/06/26 09:42:00;;;;;;;0.10;0.10;;;37.20;16.40;;;;;;5009431;28;20565;-86
2021/06/26 09:44:26;;;;;;;0.15;0.13;;;39.20;14.20;;;;;;5009263;28;20042;-85
2021/06/26 09:46:52;;;;;;;;;;;37.60;15.00;;;;;;5009986;28;20034;-85
2021/06/26 09:49:28;;;;;;;0.20;0.20;;;38.30;13.10;;;;;;5009622;28;20561;-86
2021/06/26 09:51:58;;;;;;;0.05;0.05;;;37.70;10.00;;;;;;5009460;28;20041;-87
2021/06/26 09:54:27;;;;;;;0.00;0.00;;;33.10;17.80;;;;;;5008197;28;20403;-86
2021/06/26 09:56:53;;;;;;;0.20;0.15;;;32.40;22.60;;;;;;5009428;28;20060;-85
2021/06/26 09:59:29;;;;;;;0.10;0.10;;;32.60;21.00;;;;;;5025580;28;20022;-85
2021/06/26 10:01:57;;;;;;;0.28;0.28;;;35.30;17.00;;;;;;5027743;28;20033;-86
2021/06/26 10:04:23;;;;;;;0.00;0.00;;;36.10;17.40;;;;;;5029398;28;20057;-86
2021/06/26 10:06:49;;;;;;;0.05;0.05;;;38.10;10.20;;;;;;5028815;28;20103;-86
2021/06/26 10:09:15;;;;;;;;;;;39.40;7.00;;;;;;5029705;28;20552;-85
2021/06/26 10:11:42;;;;;;;0.05;0.05;;;37.30;4.60;;;;;;5028732;28;19956;-85
2021/06/26 10:14:10;;;;;;;0.03;0.03;;;39.00;3.50;;;;;;5029288;28;20029;-85
2021/06/26 10:16:38;;;;;;;0.00;0.00;;;40.30;3.40;;;;;;5029116;28;20017;-85
2021/06/26 10:19:07;;;;;;;0.00;0.00;;;39.90;4.90;;;;;;5029111;28;20033;-85
2021/06/26 10:21:34;;;;;;;0.00;0.00;;;40.10;1.00;;;;;;5028795;28;20032;-85
2021/06/26 10:24:03;;;;;;;0.20;0.20;;;40.10;1.20;;;;;;5029090;28;20041;-85
2021/06/26 10:26:38;;;;;;;0.38;0.10;;;40.50;3.30;;;;;;5029087;28;20093;-85
2021/06/26 10:29:04;;;;;;;0.10;0.10;;;37.20;2.20;;;;;;5044717;28;20079;-85
2021/06/26 10:31:33;;;;;;;0.10;0.10;;;36.40;5.10;;;;;;5029041;28;20036;-85
2021/06/26 10:34:13;;;;;;;0.00;0.00;;;37.40;5.50;;;;;;5028900;28;20047;-84
2021/06/26 10:36:43;;;;;;;0.20;0.20;;;37.60;4.00;;;;;;5028629;28;20770;-84
2021/06/26 10:39:22;;;;;;;0.47;0.20;;;38.00;3.20;;;;;;5029056;28;20025;-83
2021/06/26 10:42:02;;;;;;;0.38;0.38;;;39.50;2.30;;;;;;5027400;28;20022;-84
2021/06/26 10:44:46;;;;;;;0.15;0.00;;;35.10;11.60;;;;;;5018072;28;20041;-83
2021/06/26 10:47:14;;;;;;;0.20;0.13;;;38.10;6.80;;;;;;5017490;28;20033;-83
2021/06/26 10:49:40;;;;;;;0.20;0.20;;;39.50;1.30;;;;;;5029025;28;20048;-83
2021/06/26 10:52:13;;;;;;;0.13;0.10;;;39.30;1.00;;;;;;5044839;28;20410;-83
2021/06/26 10:54:55;;;;;;;0.00;0.00;;;33.70;7.10;;;;;;5032299;28;20034;-83
2021/06/26 10:57:21;;;;;;;0.35;0.28;;;34.50;8.00;;;;;;5031929;28;20017;-84
2021/06/26 11:00:01;;;;;;;0.40;0.13;;;32.20;14.30;;;;;;5030463;28;20399;-83
2021/06/26 11:02:41;;;;;;;1.10;0.85;;;34.40;7.60;;;;;;5032062;28;20033;-82
2021/06/26 11:05:08;;;;;;;0.17;0.17;;;36.60;9.10;;;;;;5014351;28;20034;-83
2021/06/26 11:07:35;;;;;;;0.10;0.10;;;38.60;2.50;;;;;;5012161;28;20053;-82
2021/06/26 11:10:12;;;;;;;0.10;0.10;;;36.70;6.90;;;;;;5012261;28;20558;-82
2021/06/26 11:12:48;;;;;;;0.00;0.00;;;38.40;3.30;;;;;;5022570;28;20048;-82
2021/06/26 11:15:15;;;;;;;;;;;39.40;1.20;;;;;;5031823;28;20108;-82
2021/06/26 11:17:43;;;;;;;0.30;0.30;;;39.10;1.00;;;;;;5031653;28;19913;-82
2021/06/26 11:20:17;;;;;;;1.45;0.43;;;37.20;1.00;;;;;;5024802;28;20588;-83
2021/06/26 11:22:52;;;;;;;0.25;0.25;;;37.20;4.30;;;;;;4991281;28;20034;-83
2021/06/26 11:25:21;;;;;;;0.10;0.10;;;37.50;6.20;;;;;;5016203;28;20021;-82
2021/06/26 11:27:47;;;;;;;0.00;0.00;;;38.40;4.10;;;;;;5035855;28;20030;-82
2021/06/26 11:30:15;;;;;;;0.00;0.00;;;38.60;3.30;;;;;;5026539;28;20037;-83
2021/06/26 11:32:41;;;;;;;0.10;0.10;;;38.30;3.70;;;;;;5031310;28;20120;-83
2021/06/26 11:35:13;;;;;;;0.50;0.15;;;31.20;13.30;;;;;;5031826;28;20628;-83
2021/06/26 11:37:41;;;;;;;0.00;0.00;;;28.40;20.10;;;;;;5031678;28;20025;-82
2021/06/26 11:40:13;;;;;;;0.20;0.20;;;27.90;21.50;;;;;;5029839;28;20475;-82
2021/06/26 11:43:02;;;;;;;0.00;0.00;;;26.90;23.40;;;;;;5030228;28;20029;-83
2021/06/26 11:45:37;;;;;;;0.20;0.20;;;26.80;24.70;;;;;;5021895;28;20105;-83
2021/06/26 11:48:12;;;;;;;0.10;0.10;;;27.20;26.00;;;;;;5012536;28;20041;-83
2021/06/26 11:50:51;;;;;;;0.00;0.00;;;27.30;26.10;;;;;;5030088;28;20029;-83
2021/06/26 11:53:19;;;;;;;0.00;0.00;;;26.30;25.10;;;;;;5030534;28;20048;-82
2021/06/26 11:55:55;;;;;;;0.17;0.17;;;25.70;27.70;;;;;;5027130;28;20563;-82
2021/06/26 11:58:20;;;;;;;;;;;26.00;27.90;;;;;;5027423;28;20041;-82
2021/06/26 12:01:03;;;;;;;1.65;0.10;;;25.90;28.60;;;;;;5025467;28;20010;-81
2021/06/26 12:03:30;;;;;;;2.70;0.10;;;26.40;27.20;;;;;;5010666;28;20079;-82
2021/06/26 12:06:04;;;;;;;0.00;0.00;;;25.80;27.40;;;;;;5010918;28;20101;-81
2021/06/26 12:08:40;;;;;;;0.00;0.00;;;26.40;27.50;;;;;;5010889;28;20033;-81
2021/06/26 12:11:09;;;;;;;0.10;0.10;;;25.80;28.10;;;;;;5011044;28;20044;-81
2021/06/26 12:13:35;;;;;;;0.10;0.10;;;25.50;28.70;;;;;;5010328;28;20049;-80
2021/06/26 12:16:01;;;;;;;0.10;0.10;;;25.30;29.60;;;;;;5009953;28;20148;-81
2021/06/26 12:18:26;;;;;;;0.00;0.00;;;25.90;28.30;;;;;;4992555;28;20511;-81
2021/06/26 12:20:52;;;;;;;0.00;0.00;;;26.20;28.40;;;;;;5004182;28;20037;-81
2021/06/26 12:23:18;;;;;;;0.28;0.28;;;26.10;28.80;;;;;;5010384;28;20030;-81
2021/06/26 12:25:46;;;;;;;0.32;0.28;;;26.60;29.20;;;;;;5010127;28;20034;-81
2021/06/26 12:28:12;;;;;;;0.55;0.32;;;26.90;28.80;;;;;;5009159;28;20042;-81
2021/06/26 12:30:42;;;;;;;0.55;0.43;;;26.00;28.50;;;;;;5010160;28;20017;-81
2021/06/26 12:33:14;;;;;;;0.10;0.10;;;25.70;29.80;;;;;;5009986;28;20044;-81
2021/06/26 12:35:40;;;;;;;0.10;0.10;;;25.60;30.50;;;;;;5009213;28;20105;-81
2021/06/26 12:38:06;;;;;;;0.00;0.00;;;25.90;31.30;;;;;;5009978;28;20113;-81
2021/06/26 12:40:42;;;;;;;0.00;0.00;;;26.40;30.30;;;;;;5010056;28;20048;-81
2021/06/26 12:43:13;;;;;;;;;;;27.10;28.60;;;;;;5010166;28;20564;-81
2021/06/26 12:45:45;;;;;;;0.08;0.08;;;27.20;27.40;;;;;;5009431;28;19905;-81
2021/06/26 12:48:18;;;;;;;0.10;0.10;;;26.80;28.70;;;;;;5010442;28;20033;-81
2021/06/26 12:51:03;;;;;;;0.68;0.43;;;27.00;28.60;;;;;;5010234;28;20069;-82
2021/06/26 12:53:42;;;;;;;0.10;0.10;;;27.30;28.40;;;;;;5010053;28;20052;-81
2021/06/26 12:56:20;;;;;;;0.00;0.00;;;28.30;27.20;;;;;;5009525;28;20743;-82